Data for 06/07/2014

Time Sea-Level Adjusted Pressure Absolute Pressure Temperature Relative Humidity Dew Point   
(mb) (inHg) (mb) (inHg) (C) (F) (%) (C) (F)
00:05 1020 30.12 850 25.1 7.1 44.7 74 2.8 37.1
00:10 1021 30.15 850 25.1 7 44.6 74 2.7 36.9
00:15 1020 30.12 850 25.1 7.1 44.7 74 2.7 36.8
00:20 1020 30.12 850 25.1 7 44.6 74 2.6 36.7
00:25 1020 30.12 850 25.1 7 44.6 74 2.6 36.8
00:30 1020 30.12 850 25.1 7 44.5 74 2.6 36.7
00:35 1020 30.12 850 25.1 6.9 44.4 74 2.5 36.6
00:40 1020 30.12 850 25.1 6.9 44.4 74 2.6 36.8
00:45 1020 30.12 849 25.07 6.8 44.2 75 2.6 36.7
00:50 1020 30.12 850 25.1 6.8 44.2 74 2.6 36.6
00:55 1020 30.12 850 25.1 6.9 44.4 73 2.5 36.5
01:00 1020 30.12 850 25.1 6.9 44.5 73 2.5 36.4
01:05 1020 30.12 850 25.1 6.8 44.3 74 2.4 36.4
01:10 1020 30.12 850 25.1 6.8 44.2 74 2.5 36.6
01:15 1020 30.12 850 25.1 6.7 44 74 2.4 36.4
01:20 1020 30.12 850 25.1 6.6 44 75 2.6 36.7
01:25 1020 30.12 850 25.1 6.5 43.8 76 2.6 36.7
01:30 1020 30.12 850 25.1 6.4 43.6 76 2.5 36.6
01:35 1021 30.15 850 25.1 6.4 43.6 75 2.4 36.4
01:40 1021 30.15 850 25.1 6.5 43.6 76 2.5 36.4
01:45 1021 30.15 850 25.1 6.4 43.5 76 2.5 36.5
01:50 1021 30.15 850 25.1 6.4 43.6 76 2.5 36.4
01:55 1021 30.15 850 25.1 6.3 43.4 77 2.6 36.6
02:00 1021 30.15 850 25.1 6.1 43.1 78 2.6 36.6
02:05 1021 30.15 850 25.1 6.1 43 78 2.5 36.5
02:10 1021 30.15 850 25.1 6.2 43.1 78 2.5 36.6
02:15 1021 30.15 850 25.1 6.1 42.9 78 2.5 36.5
02:20 1021 30.15 850 25.1 6 42.9 78 2.5 36.5
02:25 1021 30.15 850 25.1 6.1 42.9 77 2.4 36.3
02:30 1021 30.15 850 25.1 6 42.9 78 2.5 36.5
02:35 1021 30.15 850 25.1 5.9 42.7 79 2.5 36.5
02:40 1021 30.15 850 25.1 5.8 42.4 79 2.5 36.6
02:45 1021 30.15 850 25.1 5.7 42.3 79 2.4 36.3
02:50 1021 30.15 850 25.1 5.8 42.4 78 2.2 36
02:55 1021 30.15 850 25.1 5.8 42.5 78 2.3 36.2
03:00 1021 30.15 850 25.1 5.8 42.4 79 2.4 36.3
03:05 1021 30.15 850 25.1 5.7 42.3 79 2.5 36.4
03:10 1021 30.15 850 25.1 5.7 42.2 80 2.4 36.4
03:15 1021 30.15 850 25.1 5.6 42.1 80 2.5 36.6
03:20 1021 30.15 850 25.1 5.6 42 81 2.5 36.6
03:25 1021 30.15 850 25.1 5.5 41.9 81 2.6 36.6
03:30 1021 30.15 850 25.1 5.4 41.8 82 2.6 36.7
03:35 1021 30.15 850 25.1 5.3 41.6 83 2.7 36.8
03:40 1021 30.15 850 25.1 5.2 41.4 84 2.7 36.9
03:45 1021 30.15 850 25.1 5.2 41.4 84 2.7 36.9
03:50 1021 30.15 850 25.1 5.2 41.4 84 2.8 37
03:55 1021 30.15 850 25.1 5.2 41.4 84 2.8 37.1
04:00 1021 30.15 850 25.1 5.2 41.4 85 2.8 37.1
04:05 1021 30.15 850 25.1 5.2 41.4 84 2.8 37
04:10 1021 30.15 850 25.1 5.2 41.4 85 2.9 37.2
04:15 1021 30.15 850 25.1 5.2 41.3 85 2.9 37.2
04:20 1021 30.15 850 25.1 5.1 41.3 85 2.9 37.2
04:25 1021 30.15 850 25.1 5.1 41.2 85 2.8 37.1
04:30 1021 30.15 850 25.1 5.1 41.2 85 2.8 37
04:35 1021 30.15 850 25.1 5.1 41.1 85 2.7 36.9
04:40 1021 30.15 850 25.1 5 41 85 2.7 36.9
04:45 1021 30.15 850 25.1 5 40.9 85 2.7 36.8
04:50 1021 30.15 850 25.1 4.9 40.9 85 2.6 36.7
04:55 1021 30.15 850 25.1 5 41 85 2.6 36.8
05:00 1021 30.15 850 25.1 5.1 41.1 84 2.7 36.8
05:05 1021 30.15 850 25.1 5.2 41.3 84 2.6 36.7
05:10 1021 30.15 850 25.1 5.3 41.5 83 2.6 36.6
05:15 1021 30.15 850 25.1 5.4 41.6 82 2.5 36.6
05:20 1021 30.15 850 25.1 5.5 41.8 81 2.5 36.6
05:25 1021 30.15 850 25.1 5.5 41.9 81 2.5 36.6
05:30 1021 30.15 850 25.1 5.6 42.1 80 2.5 36.5
05:35 1021 30.15 850 25.1 5.7 42.3 80 2.5 36.5
05:40 1021 30.15 850 25.1 5.8 42.5 79 2.5 36.5
05:45 1021 30.15 850 25.1 5.9 42.7 79 2.5 36.5
05:50 1021 30.15 850 25.1 6.1 43 78 2.5 36.6
05:55 1021 30.15 850 25.1 6.2 43.2 77 2.6 36.7
06:00 1021 30.15 850 25.1 6.4 43.5 77 2.7 36.8
06:05 1021 30.15 850 25.1 6.6 43.8 76 2.7 36.8
06:10 1021 30.15 850 25.1 6.7 44.1 75 2.6 36.7
06:15 1021 30.15 850 25.1 7 44.5 74 2.7 36.8
06:20 1021 30.15 850 25.1 6.8 44.3 74 2.6 36.7
06:25 1021 30.15 850 25.1 7 44.7 73 2.6 36.7
06:30 1021 30.15 850 25.1 7.1 44.8 73 2.7 36.8
06:35 1021 30.15 850 25.1 7.2 45 73 2.8 37
06:40 1021 30.15 850 25.1 7.4 45.3 73 2.9 37.2
06:45 1021 30.15 850 25.1 7.6 45.7 71 2.8 37
06:50 1021 30.15 850 25.1 7.9 46.1 72 3.1 37.6
06:55 1021 30.15 850 25.1 8 46.3 71 3 37.5
07:00 1021 30.15 850 25.1 8.3 47 68 2.8 37.1
07:05 1021 30.15 850 25.1 8.4 47 69 3.1 37.5
07:10 1021 30.15 850 25.1 8.7 47.6 68 3.2 37.7
07:15 1021 30.15 850 25.1 8.5 47.2 68 3 37.3
07:20 1021 30.15 850 25.1 8.7 47.6 68 3.1 37.6
07:25 1021 30.15 850 25.1 9 48.1 67 3.3 37.9
07:30 1021 30.15 850 25.1 9 48.3 67 3.4 38.1
07:35 1021 30.15 850 25.1 9.5 49 64 3.1 37.5
07:40 1021 30.15 850 25.1 9.5 49.1 65 3.4 38
07:45 1021 30.15 850 25.1 9.4 48.9 66 3.3 38
07:50 1021 30.15 850 25.1 9.7 49.5 62 2.9 37.2
07:55 1021 30.15 850 25.1 9.9 49.9 63 3.3 38
08:00 1021 30.15 850 25.1 9.9 49.8 62 3 37.5
08:05 1021 30.15 850 25.1 10.3 50.5 59 2.8 37
08:10 1021 30.15 850 25.1 10.3 50.5 61 3.2 37.8
08:15 1021 30.15 850 25.1 10.4 50.7 61 3.2 37.7
08:20 1021 30.15 850 25.1 10.8 51.4 59 3.1 37.6
08:25 1021 30.15 850 25.1 10.9 51.6 59 3.2 37.7
08:30 1021 30.15 850 25.1 11.3 52.3 55 2.7 36.9
08:35 1021 30.15 850 25.1 11.5 52.7 56 3.1 37.5
08:40 1021 30.15 850 25.1 11.9 53.5 54 3.1 37.6
08:45 1021 30.15 850 25.1 11.5 52.7 57 3.4 38.2
08:50 1021 30.15 850 25.1 11.3 52.3 56 2.8 37
08:55 1021 30.15 850 25.1 12.5 54.5 54 3.6 38.5
09:00 1021 30.15 850 25.1 13 55.3 51 3.1 37.6
09:05 1021 30.15 850 25.1 13.5 56.3 51 3.7 38.6
09:10 1021 30.15 850 25.1 13.8 56.8 50 3.7 38.7
09:15 1020 30.12 850 25.1 13.2 55.8 53 3.8 38.9
09:20 1020 30.12 850 25.1 13.8 56.8 52 4.2 39.6
09:25 1020 30.12 850 25.1 13.2 55.7 53 3.8 38.9
09:30 1020 30.12 850 25.1 13.3 55.9 50 3.2 37.8
09:35 1020 30.12 850 25.1 13.4 56.1 54 4.5 40
09:40 1020 30.12 850 25.1 13.2 55.8 50 3.2 37.7
09:45 1020 30.12 850 25.1 14.4 57.9 47 3.3 37.9
09:50 1020 30.12 850 25.1 14.5 58.1 46 3.1 37.5
09:55 1020 30.12 850 25.1 13.8 56.9 47 2.8 37
10:00 1020 30.12 850 25.1 14.8 58.6 45 3.1 37.6
10:05 1020 30.12 849 25.07 15 59 45 3.2 37.8
10:10 1020 30.12 849 25.07 14.7 58.5 44 2.6 36.6
10:15 1020 30.12 849 25.07 14.5 58.1 45 2.8 37
10:20 1020 30.12 849 25.07 13.9 57.1 43 1.7 35.1
10:25 1020 30.12 849 25.07 15.2 59.4 37 0.9 33.6
10:30 1020 30.12 849 25.07 15.7 60.3 39 1.9 35.4
10:35 1020 30.12 849 25.07 16 60.8 41 2.7 36.9
10:40 1020 30.12 849 25.07 16.6 61.9 39 2.8 37
10:45 1020 30.12 849 25.07 16.6 61.9 38 2.4 36.3
10:50 1020 30.12 849 25.07 16.8 62.2 35 1.5 34.8
10:55 1020 30.12 849 25.07 16.3 61.4 39 2.4 36.4
11:00 1020 30.12 849 25.07 15.5 60 40 2.1 35.7
11:05 1020 30.12 849 25.07 16.6 61.8 37 2.1 35.8
11:10 1020 30.12 849 25.07 17 62.5 35 1.4 34.4
11:15 1020 30.12 849 25.07 17.5 63.4 35 2 35.6
11:20 1020 30.12 849 25.07 17 62.7 34 1.3 34.4
11:25 1020 30.12 849 25.07 17.7 63.8 35 2 35.6
11:30 1020 30.12 849 25.07 16.5 61.8 36 1.6 34.8
11:35 1020 30.12 849 25.07 16.5 61.7 37 1.7 35.1
11:40 1020 30.12 849 25.07 17.2 62.9 35 1.5 34.7
11:45 1020 30.12 849 25.07 17.4 63.3 34 1.4 34.6
11:50 1020 30.12 849 25.07 17.4 63.2 34 1.5 34.6
11:55 1020 30.12 849 25.07 17.9 64.2 31 0.6 33.1
12:00 1020 30.12 849 25.07 18.3 64.9 30 0.6 33.1
12:05 1020 30.12 849 25.07 18.1 64.6 32 1.3 34.3
12:10 1020 30.12 849 25.07 18.2 64.7 29 -0.1 31.8
12:15 1020 30.12 849 25.07 18.3 65 30 0.8 33.4
12:20 1020 30.12 849 25.07 17.9 64.2 31 0.8 33.5
12:25 1020 30.12 849 25.07 18.5 65.4 31 1.2 34.1
12:30 1020 30.12 849 25.07 18.8 65.9 29 0.5 32.8
12:35 1020 30.12 849 25.07 18.9 66 29 0.4 32.8
12:40 1020 30.12 849 25.07 18.5 65.3 27 -0.6 31
12:45 1019 30.09 849 25.07 18.6 65.4 26 -1.4 29.5
12:50 1019 30.09 849 25.07 19 66.2 25 -1.3 29.7
12:55 1019 30.09 849 25.07 19.7 67.5 25 -0.9 30.3
13:00 1019 30.09 849 25.07 18.6 65.4 23 -2.6 27.4
13:05 1019 30.09 849 25.07 18.5 65.2 25 -2 28.4
13:10 1019 30.09 848 25.04 19.3 66.7 24 -1.4 29.5
13:15 1019 30.09 848 25.04 19.5 67.2 24 -1.2 29.9
13:20 1019 30.09 848 25.04 19.8 67.6 23 -1.6 29.2
13:25 1019 30.09 848 25.04 19.6 67.3 24 -1.3 29.7
13:30 1019 30.09 848 25.04 18.9 66.1 25 -1.6 29.2
13:35 1019 30.09 848 25.04 19.4 66.8 25 -1.3 29.7
13:40 1019 30.09 848 25.04 19.4 66.8 26 -0.3 31.5
13:45 1019 30.09 848 25.04 18.6 65.4 26 -1.1 30.1
13:50 1019 30.09 848 25.04 18.6 65.5 24 -2 28.4
13:55 1019 30.09 848 25.04 20.3 68.5 23 -1.6 29.2
14:00 1019 30.09 848 25.04 20.2 68.4 22 -1.9 28.6
14:05 1019 30.09 848 25.04 20.7 69.2 22 -1.9 28.7
14:10 1019 30.09 848 25.04 20.4 68.6 21 -2.3 27.8
14:15 1019 30.09 848 25.04 20 68 22 -2.2 28
14:20 1019 30.09 848 25.04 20.2 68.3 20 -3 26.6
14:25 1019 30.09 848 25.04 20.2 68.3 21 -2.9 26.8
14:30 1019 30.09 848 25.04 19.9 67.9 22 -2.3 27.8
14:35 1019 30.09 848 25.04 20.5 68.8 20 -3.2 26.2
14:40 1019 30.09 848 25.04 20.9 69.6 20 -2.6 27.3
14:45 1019 30.09 848 25.04 20.9 69.7 21 -2 28.4
14:50 1019 30.09 848 25.04 20.9 69.5 20 -2.5 27.5
14:55 1019 30.09 848 25.04 20.8 69.5 20 -2.7 27.2
15:00 1019 30.09 848 25.04 20.8 69.5 20 -2.5 27.4
15:05 1019 30.09 848 25.04 21 69.9 21 -1.9 28.6
15:10 1019 30.09 848 25.04 21.1 70.1 21 -2.1 28.2
15:15 1019 30.09 848 25.04 21.2 70.2 21 -2 28.4
15:20 1019 30.09 848 25.04 20.8 69.4 22 -1.6 29.1
15:25 1019 30.09 848 25.04 20.4 68.8 22 -1.8 28.7
15:30 1019 30.09 848 25.04 20.6 69.1 23 -1.1 29.9
15:35 1019 30.09 848 25.04 21 69.7 22 -1.4 29.5
15:40 1019 30.09 848 25.04 21 69.8 22 -1.2 29.9
15:45 1019 30.09 848 25.04 20.7 69.2 23 -1 30.1
15:50 1019 30.09 848 25.04 20.4 68.8 24 -0.9 30.5
15:55 1019 30.09 848 25.04 19.9 67.9 25 -0.7 30.8
16:00 1019 30.09 848 25.04 19.9 67.7 26 -0.1 31.9
16:05 1019 30.09 848 25.04 19.5 67.2 26 -0.5 31.1
16:10 1019 30.09 848 25.04 19.9 67.8 25 -0.4 31.2
16:15 1019 30.09 848 25.04 19.7 67.5 25 -0.7 30.8
16:20 1019 30.09 848 25.04 20.1 68.1 24 -0.9 30.5
16:25 1019 30.09 848 25.04 19.8 67.6 26 -0 32
16:30 1019 30.09 848 25.04 19.5 67.1 26 -0.2 31.6
16:35 1019 30.09 848 25.04 19.3 66.8 25 -1 30.3
16:40 1019 30.09 848 25.04 18.8 65.9 26 -1.1 30
16:45 1019 30.09 848 25.04 19.4 67 24 -1.6 29.1
16:50 1019 30.09 848 25.04 19.2 66.6 24 -1.7 28.9
16:55 1019 30.09 848 25.04 19.3 66.8 24 -1.4 29.4
17:00 1019 30.09 848 25.04 19.3 66.8 25 -1.2 29.8
17:05 1019 30.09 848 25.04 19 66.3 26 -0.9 30.3
17:10 1019 30.09 848 25.04 18.7 65.6 25 -1.7 29
17:15 1019 30.09 848 25.04 18.9 66 25 -1.3 29.6
17:20 1019 30.09 848 25.04 18.7 65.6 25 -1.4 29.4
17:25 1019 30.09 848 25.04 18.9 65.9 24 -1.9 28.6
17:30 1019 30.09 848 25.04 19 66.3 23 -2.3 27.9
17:35 1019 30.09 848 25.04 18.3 64.9 25 -1.8 28.8
17:40 1019 30.09 848 25.04 18.4 65.1 24 -2.5 27.5
17:45 1019 30.09 848 25.04 18.1 64.5 25 -2.3 27.8
17:50 1019 30.09 848 25.04 17.9 64.3 24 -2.6 27.3
17:55 1019 30.09 848 25.04 17.8 64.1 25 -2.6 27.3
18:00 1019 30.09 848 25.04 17.8 64 24 -2.8 26.9
18:05 1019 30.09 848 25.04 17.9 64.3 25 -2.4 27.7
18:10 1019 30.09 848 25.04 18.2 64.7 24 -2.6 27.3
18:15 1019 30.09 848 25.04 18.2 64.8 24 -2.3 27.8
18:20 1019 30.09 848 25.04 18.4 65.1 25 -1.7 29
18:25 1019 30.09 848 25.04 18.3 65 25 -2 28.3
18:30 1019 30.09 848 25.04 18.2 64.7 25 -2.2 28
18:35 1019 30.09 848 25.04 18 64.5 26 -1.8 28.8
18:40 1019 30.09 848 25.04 18 64.3 26 -1.9 28.5
18:45 1019 30.09 848 25.04 17.8 64.1 26 -1.8 28.7
18:50 1019 30.09 848 25.04 17.7 63.8 25 -2.5 27.5
18:55 1019 30.09 848 25.04 17.4 63.2 24 -3.5 25.7
19:00 1019 30.09 848 25.04 17.3 63.1 25 -2.8 27
19:05 1019 30.09 848 25.04 17.4 63.3 26 -2.4 27.6
19:10 1019 30.09 848 25.04 17.1 62.8 27 -2.1 28.1
19:15 1019 30.09 848 25.04 16.9 62.5 27 -2 28.5
19:20 1019 30.09 848 25.04 16.8 62.3 28 -1.9 28.6
19:25 1019 30.09 848 25.04 16.7 62 28 -1.8 28.8
19:30 1019 30.09 849 25.07 16.7 62.1 28 -1.6 29.1
19:35 1019 30.09 849 25.07 16.5 61.7 29 -1.7 29
19:40 1019 30.09 849 25.07 16.4 61.5 28 -1.9 28.6
19:45 1020 30.12 849 25.07 16.4 61.4 29 -1.7 28.9
19:50 1020 30.12 849 25.07 16.2 61.2 29 -1.8 28.7
19:55 1020 30.12 849 25.07 16 60.9 30 -1.4 29.5
20:00 1020 30.12 849 25.07 15.9 60.6 30 -1.7 28.9
20:05 1020 30.12 849 25.07 15.9 60.5 30 -1.6 29.2
20:10 1020 30.12 849 25.07 15.7 60.3 30 -1.6 29
20:15 1020 30.12 849 25.07 15.8 60.4 30 -1.8 28.7
20:20 1020 30.12 849 25.07 15.6 60.1 30 -1.8 28.8
20:25 1020 30.12 849 25.07 15.4 59.7 31 -1.4 29.4
20:30 1020 30.12 849 25.07 15.1 59.2 33 -1.1 30
20:35 1020 30.12 849 25.07 15 58.9 33 -1 30.3
20:40 1020 30.12 849 25.07 14.8 58.7 33 -1.1 30.1
20:45 1020 30.12 850 25.1 14.8 58.6 33 -1.1 30
20:50 1020 30.12 850 25.1 14.6 58.3 35 -0.5 31
20:55 1020 30.12 850 25.1 14.5 58.1 36 -0.3 31.5
21:00 1020 30.12 850 25.1 14.4 58 36 -0.5 31
21:05 1020 30.12 850 25.1 14.4 58 37 -0.1 31.8
21:10 1020 30.12 850 25.1 14.3 57.8 37 -0.1 31.8
21:15 1020 30.12 850 25.1 14.3 57.7 35 -0.8 30.6
21:20 1020 30.12 850 25.1 14.3 57.8 33 -1.7 29
21:25 1020 30.12 850 25.1 14.4 58 33 -1.7 28.9
21:30 1020 30.12 850 25.1 14.3 57.7 39 0.6 33.1
21:35 1020 30.12 850 25.1 13.8 56.8 41 0.8 33.4
21:40 1020 30.12 850 25.1 13.7 56.6 41 0.6 33.1
21:45 1020 30.12 850 25.1 13.6 56.4 40 0.3 32.5
21:50 1020 30.12 850 25.1 13.6 56.5 41 0.6 33
21:55 1020 30.12 850 25.1 13.6 56.4 41 0.7 33.2
22:00 1020 30.12 850 25.1 13.5 56.2 42 0.9 33.6
22:05 1020 30.12 850 25.1 13.4 56.1 41 0.4 32.7
22:10 1021 30.15 850 25.1 13.4 56 42 0.7 33.3
22:15 1021 30.15 850 25.1 13.2 55.8 43 1 33.8
22:20 1021 30.15 850 25.1 13.1 55.5 43 0.7 33.3
22:25 1021 30.15 850 25.1 13.1 55.6 42 0.7 33.2
22:30 1021 30.15 850 25.1 13.1 55.6 42 0.6 33.1
22:35 1021 30.15 850 25.1 13 55.4 46 1.7 35.1
22:40 1021 30.15 850 25.1 12.7 54.9 49 2.4 36.3
22:45 1021 30.15 850 25.1 12.6 54.6 50 2.5 36.5
22:50 1020 30.12 850 25.1 12.4 54.3 51 2.5 36.6
22:55 1020 30.12 850 25.1 12.4 54.2 51 2.6 36.7
23:00 1021 30.15 850 25.1 12.3 54.1 52 2.8 37.1
23:05 1020 30.12 850 25.1 12.2 53.9 52 2.8 37
23:10 1020 30.12 850 25.1 12.2 53.9 53 2.8 37.1
23:15 1020 30.12 850 25.1 12.1 53.8 53 3 37.4
23:20 1020 30.12 850 25.1 12 53.6 55 3.2 37.7
23:25 1020 30.12 850 25.1 11.9 53.3 55 3.2 37.7
23:30 1020 30.12 850 25.1 11.7 53.1 55 3 37.5
23:35 1020 30.12 850 25.1 11.7 53 53 2.6 36.7
23:40 1020 30.12 850 25.1 11.7 53.1 53 2.6 36.7
23:45 1020 30.12 850 25.1 11.6 52.8 56 3.2 37.7
23:50 1020 30.12 850 25.1 11.3 52.4 57 3.1 37.6
23:55 1020 30.12 850 25.1 11.2 52.2 57 3.1 37.5
24:00 1020 30.12 850 25.1 11.2 52.1 56 2.9 37.2